CheckWX is a tool to help pilots better visualize weather data.  It is not intended as a substitute for an official pre-flight weather briefing.

10:31:19 UTC

KBGF METAR
Winchester Municipal Airport
Winchester, Tennessee, USA
Current

16 mins ago

KBGF 121015Z AUTO 06004KT 10SM CLR 01/M06 A3047 RMK A01
Observed
Dec-12 @ 10:15 UTC
Wind
  • 060° at 4 KTS
Visibility
10 SM
Flight Rules
VFR
Cloud Levels
  • Clear skies
Temperature
C / 34°F
Dewpoint
-6°C / 21°F
Humidity
60%
Altimeter
30.47" Hg
Pressure
1031.82 hPa
Previous

36 mins ago

KBGF 120955Z AUTO 10005KT 10SM CLR 01/M06 A3048 RMK A01
Observed
Dec-12 @ 09:55 UTC
Wind
  • 100° at 5 KTS
Visibility
10 SM
Flight Rules
VFR
Cloud Levels
  • Clear skies
Temperature
C / 34°F
Dewpoint
-6°C / 21°F
Humidity
60%
Altimeter
30.48" Hg
Pressure
1032.22 hPa
Previous

56 mins ago

KBGF 120935Z AUTO 05004KT 10SM CLR 01/M06 A3048 RMK A01
Observed
Dec-12 @ 09:35 UTC
Wind
  • 050° at 4 KTS
Visibility
10 SM
Flight Rules
VFR
Cloud Levels
  • Clear skies
Temperature
C / 34°F
Dewpoint
-6°C / 21°F
Humidity
60%
Altimeter
30.48" Hg
Pressure
1032.22 hPa